createdAt,value
2018-08-03T00:02:00.096Z,20.30
2018-08-03T00:07:02.766Z,20.30
2018-08-03T00:12:05.435Z,20.30
2018-08-03T00:17:08.086Z,20.20
2018-08-03T00:22:10.753Z,20.20
2018-08-03T00:27:13.447Z,20.20
2018-08-03T00:32:16.062Z,20.20
2018-08-03T00:37:18.679Z,20.20
2018-08-03T00:42:21.317Z,20.10
2018-08-03T00:47:23.941Z,20.10
2018-08-03T00:52:26.567Z,20.00
2018-08-03T00:57:29.245Z,20.00
2018-08-03T01:02:31.890Z,20.00
2018-08-03T01:07:34.506Z,19.90
2018-08-03T01:12:37.204Z,19.80
2018-08-03T01:17:39.934Z,19.80
2018-08-03T01:22:42.555Z,19.80
2018-08-03T01:27:45.287Z,19.80
2018-08-03T01:32:47.943Z,19.80
2018-08-03T01:37:50.556Z,19.60
2018-08-03T01:42:53.178Z,19.50
2018-08-03T01:47:55.801Z,19.50
2018-08-03T01:52:58.418Z,19.50
2018-08-03T01:58:01.031Z,19.40
2018-08-03T02:03:03.665Z,19.40
2018-08-03T02:08:06.403Z,19.30
2018-08-03T02:13:09.063Z,19.40
2018-08-03T02:18:11.714Z,19.30
2018-08-03T02:23:14.399Z,19.30
2018-08-03T02:28:17.039Z,19.30
2018-08-03T02:33:19.688Z,19.30
2018-08-03T02:38:22.323Z,19.50
2018-08-03T02:43:24.942Z,19.60
2018-08-03T02:48:27.519Z,19.70
2018-08-03T02:53:30.160Z,19.80
2018-08-03T02:58:32.770Z,19.70
2018-08-03T03:03:35.442Z,19.70
2018-08-03T03:08:38.091Z,19.60
2018-08-03T03:13:40.716Z,19.40
2018-08-03T03:18:43.336Z,19.30
2018-08-03T03:23:45.971Z,19.10
2018-08-03T03:28:48.626Z,19.00
2018-08-03T03:33:51.299Z,18.90
2018-08-03T03:38:53.926Z,18.80
2018-08-03T03:43:56.554Z,18.70
2018-08-03T03:48:59.182Z,18.60
2018-08-03T03:54:01.963Z,18.50
2018-08-03T03:59:04.666Z,18.40
2018-08-03T04:04:07.397Z,18.40
2018-08-03T04:14:14.233Z,18.50
2018-08-03T04:19:16.835Z,18.60
2018-08-03T04:24:19.421Z,18.60
2018-08-03T04:29:22.104Z,18.50
2018-08-03T04:34:24.746Z,18.60
2018-08-03T04:39:27.383Z,18.70
2018-08-03T04:44:30.047Z,18.80
2018-08-03T04:49:32.668Z,18.90
2018-08-03T04:54:35.317Z,19.00
2018-08-03T04:59:37.949Z,19.10
2018-08-03T05:04:40.627Z,19.30
2018-08-03T05:09:43.260Z,19.50
2018-08-03T05:14:45.870Z,19.60
2018-08-03T05:19:48.528Z,19.70
2018-08-03T05:24:51.166Z,19.90
2018-08-03T05:29:53.772Z,20.10
2018-08-03T05:34:56.411Z,20.20
2018-08-03T05:39:59.039Z,20.30
2018-08-03T05:45:01.737Z,20.50
2018-08-03T05:50:04.643Z,20.70
2018-08-03T05:55:07.329Z,20.90
2018-08-03T06:00:10.029Z,21.10
2018-08-03T06:05:12.725Z,21.20
2018-08-03T06:10:15.351Z,21.40
2018-08-03T06:15:17.997Z,21.70
2018-08-03T06:20:20.684Z,21.80
2018-08-03T06:25:23.291Z,22.00
2018-08-03T06:30:25.916Z,22.30
2018-08-03T06:35:28.571Z,22.60
2018-08-03T06:40:31.210Z,22.70
2018-08-03T06:45:33.817Z,23.00
2018-08-03T06:50:36.439Z,23.00
2018-08-03T06:55:39.107Z,23.30
2018-08-03T07:00:41.763Z,23.60
2018-08-03T07:05:44.398Z,23.90
2018-08-03T07:10:47.064Z,24.10
2018-08-03T07:15:49.740Z,24.40
2018-08-03T07:20:52.539Z,24.60
2018-08-03T07:25:55.433Z,24.80
2018-08-03T07:30:58.018Z,25.00
2018-08-03T07:36:00.657Z,25.20
2018-08-03T07:41:03.303Z,25.20
2018-08-03T07:46:06.204Z,25.40
2018-08-03T07:51:08.946Z,25.60
2018-08-03T07:56:11.605Z,25.90
2018-08-03T08:01:14.279Z,26.20
2018-08-03T08:06:16.947Z,26.50
2018-08-03T08:11:19.590Z,26.90
2018-08-03T08:16:22.258Z,27.10
2018-08-03T08:21:24.915Z,27.50
2018-08-03T08:26:28.174Z,27.50
2018-08-03T08:31:31.791Z,27.70
2018-08-03T08:36:34.415Z,28.00
2018-08-03T08:41:37.050Z,28.60
2018-08-03T08:46:39.870Z,28.80
2018-08-03T08:51:42.574Z,29.20
2018-08-03T08:56:45.236Z,29.60
2018-08-03T09:01:47.915Z,29.70
2018-08-03T09:06:50.616Z,29.90
2018-08-03T09:11:53.277Z,30.30
2018-08-03T09:16:55.946Z,30.50
2018-08-03T09:21:58.644Z,30.90
2018-08-03T09:27:01.268Z,31.40
2018-08-03T09:32:04.066Z,32.00
2018-08-03T09:37:06.690Z,32.80
2018-08-03T09:42:09.341Z,33.40
2018-08-03T09:47:12.019Z,33.90
2018-08-03T09:52:14.644Z,34.60
2018-08-03T09:57:17.355Z,34.30
2018-08-03T10:02:20.111Z,34.80
2018-08-03T10:07:22.821Z,35.40
2018-08-03T10:12:25.414Z,35.70
2018-08-03T10:17:28.048Z,36.40
2018-08-03T10:22:30.742Z,36.60
2018-08-03T10:27:33.689Z,36.90
2018-08-03T10:32:36.410Z,37.10
2018-08-03T10:37:39.058Z,37.50
2018-08-03T10:42:41.756Z,37.50
2018-08-03T10:47:44.350Z,38.00
2018-08-03T10:52:46.994Z,37.60
2018-08-03T10:57:49.676Z,38.10
2018-08-03T11:02:52.986Z,39.40
2018-08-03T11:07:55.645Z,39.60
2018-08-03T11:12:58.287Z,39.40
2018-08-03T11:18:00.919Z,39.50
2018-08-03T11:23:03.592Z,40.60
2018-08-03T11:28:06.230Z,41.30
2018-08-03T11:33:08.873Z,40.20
2018-08-03T11:38:11.502Z,40.00
2018-08-03T11:43:14.135Z,40.50
2018-08-03T11:48:17.531Z,41.20
2018-08-03T11:53:20.213Z,41.60
2018-08-03T11:58:22.884Z,42.50
2018-08-03T12:03:25.588Z,43.20
2018-08-03T12:08:28.213Z,43.00
2018-08-03T12:13:30.861Z,43.20
2018-08-03T12:18:33.505Z,43.20
2018-08-03T12:23:36.170Z,44.40
2018-08-03T12:28:38.815Z,44.40
2018-08-03T12:33:41.426Z,44.20
2018-08-03T12:38:44.086Z,44.40
2018-08-03T12:43:46.720Z,45.10
2018-08-03T12:48:49.364Z,44.60
2018-08-03T12:53:51.983Z,44.50
2018-08-03T12:58:54.622Z,46.40
2018-08-03T13:03:57.874Z,46.90
2018-08-03T13:09:00.489Z,47.30
2018-08-03T13:14:03.139Z,46.10
2018-08-03T13:19:05.769Z,45.40
2018-08-03T13:24:08.451Z,43.40
2018-08-03T13:29:11.103Z,41.60
2018-08-03T13:34:13.738Z,43.40
2018-08-03T13:39:16.371Z,45.30
2018-08-03T13:44:18.973Z,44.90
2018-08-03T13:49:21.582Z,45.90
2018-08-03T13:54:24.207Z,47.40
2018-08-03T13:59:26.860Z,46.50
2018-08-03T14:04:29.503Z,43.20
2018-08-03T14:09:32.174Z,40.90
2018-08-03T14:14:34.847Z,43.50
2018-08-03T14:19:37.602Z,44.10
2018-08-03T14:24:40.258Z,46.80
2018-08-03T14:29:42.899Z,46.90
2018-08-03T14:34:45.543Z,47.30
2018-08-03T14:39:48.179Z,47.10
2018-08-03T14:44:50.806Z,45.30
2018-08-03T14:49:53.426Z,43.80
2018-08-03T14:54:56.152Z,45.80
2018-08-03T14:59:58.817Z,46.70
2018-08-03T15:05:01.455Z,48.00
2018-08-03T15:10:04.318Z,49.00
2018-08-03T15:15:07.032Z,47.30
2018-08-03T15:20:10.053Z,47.80
2018-08-03T15:25:12.720Z,46.40
2018-08-03T15:30:15.381Z,46.30
2018-08-03T15:35:18.073Z,47.30
2018-08-03T15:40:21.091Z,47.20
2018-08-03T15:45:23.826Z,47.90
2018-08-03T15:50:26.507Z,48.20
2018-08-03T15:55:29.134Z,47.50
2018-08-03T16:00:31.822Z,47.30
2018-08-03T16:05:34.482Z,47.90
2018-08-03T16:10:37.090Z,47.30
2018-08-03T16:15:39.755Z,46.50
2018-08-03T16:20:42.481Z,46.90
2018-08-03T16:25:45.185Z,46.80
2018-08-03T16:30:47.823Z,47.80
2018-08-03T16:35:50.455Z,47.20
2018-08-03T16:40:53.054Z,46.40
2018-08-03T16:45:55.711Z,46.30
2018-08-03T16:50:58.319Z,46.10
2018-08-03T16:56:02.447Z,44.70
2018-08-03T17:01:05.170Z,44.00
2018-08-03T17:06:07.792Z,44.50
2018-08-03T17:11:10.411Z,44.50
2018-08-03T17:16:13.075Z,44.10
2018-08-03T17:21:15.728Z,43.50
2018-08-03T17:26:18.367Z,43.30
2018-08-03T17:31:21.082Z,42.70
2018-08-03T17:36:23.732Z,42.20
2018-08-03T17:41:26.436Z,41.70
2018-08-03T17:46:29.060Z,41.40
2018-08-03T17:51:31.798Z,41.00
2018-08-03T17:56:34.435Z,40.10
2018-08-03T18:01:37.035Z,39.10
2018-08-03T18:06:39.726Z,37.40
2018-08-03T18:11:42.463Z,35.90
2018-08-03T18:16:45.091Z,34.20
2018-08-03T18:21:47.742Z,32.80
2018-08-03T18:26:50.346Z,31.60
2018-08-03T18:31:53.001Z,30.60
2018-08-03T18:36:55.680Z,29.90
2018-08-03T18:41:58.332Z,29.30
2018-08-03T18:47:00.973Z,28.70
2018-08-03T18:52:03.679Z,28.20
2018-08-03T18:57:06.415Z,27.80
2018-08-03T19:02:09.203Z,27.20
2018-08-03T19:07:11.874Z,26.90
2018-08-03T19:12:14.563Z,26.90
2018-08-03T19:17:17.163Z,26.20
2018-08-03T19:22:19.814Z,26.00
2018-08-03T19:27:22.446Z,25.80
2018-08-03T19:32:25.090Z,25.60
2018-08-03T19:37:27.708Z,25.60
2018-08-03T19:42:30.321Z,25.60
2018-08-03T19:47:32.944Z,25.30
2018-08-03T19:52:35.610Z,25.20
2018-08-03T19:57:38.298Z,25.10
2018-08-03T20:02:40.990Z,25.00
2018-08-03T20:07:43.660Z,24.90
2018-08-03T20:12:46.328Z,24.80
2018-08-03T20:17:49.009Z,24.80
2018-08-03T20:22:51.642Z,24.60
2018-08-03T20:27:54.250Z,24.50
2018-08-03T20:32:56.883Z,24.40
2018-08-03T20:37:59.530Z,24.30
2018-08-03T20:43:02.198Z,24.20
2018-08-03T20:48:04.839Z,24.10
2018-08-03T20:53:07.516Z,23.90
2018-08-03T20:58:10.208Z,23.70
2018-08-03T21:03:12.911Z,23.60
2018-08-03T21:08:15.561Z,23.40
2018-08-03T21:13:22.307Z,23.40
2018-08-03T21:18:24.911Z,23.30
2018-08-03T21:23:27.579Z,23.30
2018-08-03T21:28:30.368Z,23.30
2018-08-03T22:35:52.120Z,22.70
2018-08-03T22:40:55.014Z,22.70
2018-08-03T22:45:57.678Z,22.80
2018-08-03T22:51:00.345Z,22.90
2018-08-03T22:56:03.049Z,22.90
2018-08-03T23:01:05.901Z,23.00
2018-08-03T23:06:08.522Z,23.10
2018-08-03T23:11:11.197Z,23.00
2018-08-03T23:16:13.840Z,22.90
2018-08-03T23:21:16.478Z,22.90
2018-08-03T23:26:19.135Z,23.20
2018-08-03T23:31:21.758Z,23.30
2018-08-03T23:36:24.483Z,23.30
2018-08-03T23:41:27.142Z,23.30
2018-08-03T23:46:29.891Z,23.30
2018-08-03T23:51:32.595Z,23.10
2018-08-03T23:56:35.343Z,22.90
